createdAt,value
2019-05-21T00:01:47.597Z,98717.19
2019-05-21T00:04:27.867Z,98708.52
2019-05-21T00:06:51.193Z,98712.29
2019-05-21T00:09:22.005Z,98705.42
2019-05-21T00:11:52.952Z,98704.95
2019-05-21T00:14:23.704Z,98712.77
2019-05-21T00:16:55.105Z,98703.78
2019-05-21T00:19:25.640Z,98705.31
2019-05-21T00:21:56.314Z,98705.14
2019-05-21T00:24:26.788Z,98705.19
2019-05-21T00:26:57.460Z,98707.17
2019-05-21T00:30:03.956Z,98704.22
2019-05-21T00:33:10.674Z,98701.48
2019-05-21T00:36:18.021Z,98702.89
2019-05-21T00:39:25.214Z,98696.38
2019-05-21T00:42:00.977Z,98694.82
2019-05-21T00:44:34.109Z,98691.20
2019-05-21T00:47:05.659Z,98700.89
2019-05-21T00:49:36.533Z,98697.12
2019-05-21T00:52:09.025Z,98706.31
2019-05-21T00:54:40.011Z,98712.26
2019-05-21T00:57:11.353Z,98710.38
2019-05-21T00:59:42.530Z,98708.52
2019-05-21T01:02:13.222Z,98713.68
2019-05-21T01:04:59.226Z,98712.62
2019-05-21T01:07:16.502Z,98708.72
2019-05-21T01:09:48.444Z,98713.35
2019-05-21T01:12:19.198Z,98709.05
2019-05-21T01:14:49.960Z,98709.02
2019-05-21T01:17:20.808Z,98700.39
2019-05-21T01:19:51.594Z,98703.47
2019-05-21T01:22:22.196Z,98708.16
2019-05-21T01:24:52.664Z,98706.24
2019-05-21T01:27:23.176Z,98708.09
2019-05-21T01:29:54.672Z,98705.38
2019-05-21T01:32:25.651Z,98706.20
2019-05-21T01:34:56.121Z,98712.58
2019-05-21T01:37:26.781Z,98716.08
2019-05-21T01:39:57.248Z,98716.22
2019-05-21T01:42:27.779Z,98718.11
2019-05-21T01:44:58.267Z,98715.63
2019-05-21T01:47:29.091Z,98715.48
2019-05-21T01:49:59.573Z,98711.83
2019-05-21T01:52:30.168Z,98714.16
2019-05-21T01:55:00.632Z,98708.78
2019-05-21T01:57:32.448Z,98709.83
2019-05-21T02:00:03.348Z,98713.06
2019-05-21T02:02:35.182Z,98711.91
2019-05-21T02:05:06.145Z,98713.25
2019-05-21T02:07:38.257Z,98707.54
2019-05-21T02:10:10.061Z,98711.91
2019-05-21T02:12:40.890Z,98709.91
2019-05-21T02:15:12.087Z,98712.23
2019-05-21T02:17:43.891Z,98714.76
2019-05-21T02:20:15.093Z,98714.12
2019-05-21T02:22:46.156Z,98713.75
2019-05-21T02:25:17.628Z,98714.11
2019-05-21T02:27:48.410Z,98707.91
2019-05-21T02:30:19.451Z,98707.68
2019-05-21T02:32:50.195Z,98712.36
2019-05-21T02:35:21.090Z,98705.35
2019-05-21T02:37:51.876Z,98715.89
2019-05-21T02:40:23.567Z,98716.19
2019-05-21T02:42:54.767Z,98707.27
2019-05-21T02:45:25.658Z,98707.12
2019-05-21T02:47:56.466Z,98709.39
2019-05-21T02:50:27.328Z,98704.28
2019-05-21T02:52:58.027Z,98710.31
2019-05-21T02:55:28.803Z,98705.29
2019-05-21T02:57:59.811Z,98695.11
2019-05-21T03:00:55.791Z,98698.65
2019-05-21T03:03:28.529Z,98703.94
2019-05-21T03:06:13.066Z,98700.22
2019-05-21T03:08:31.232Z,98702.23
2019-05-21T03:11:01.727Z,98710.12
2019-05-21T03:13:32.335Z,98708.47
2019-05-21T03:16:02.902Z,98704.98
2019-05-21T03:18:33.422Z,98705.94
2019-05-21T03:21:03.885Z,98701.14
2019-05-21T03:23:34.867Z,98703.36
2019-05-21T03:26:05.664Z,98711.13
2019-05-21T03:28:36.466Z,98707.91
2019-05-21T03:31:07.273Z,98704.41
2019-05-21T03:33:38.276Z,98707.03
2019-05-21T03:36:09.147Z,98702.19
2019-05-21T03:38:39.918Z,98705.98
2019-05-21T03:41:10.719Z,98705.42
2019-05-21T03:43:41.514Z,98704.48
2019-05-21T03:46:12.259Z,98707.56
2019-05-21T03:48:43.650Z,98706.20
2019-05-21T03:51:14.436Z,98711.63
2019-05-21T03:53:45.243Z,98713.11
2019-05-21T03:56:16.052Z,98721.01
2019-05-21T03:58:47.060Z,98720.05
2019-05-21T04:01:17.922Z,98711.39
2019-05-21T04:03:48.688Z,98714.06
2019-05-21T04:06:19.591Z,98718.52
2019-05-21T04:08:50.557Z,98715.24
2019-05-21T04:11:21.343Z,98720.75
2019-05-21T04:13:53.319Z,98718.30
2019-05-21T04:16:59.142Z,98724.67
2019-05-21T04:19:33.497Z,98726.11
2019-05-21T04:22:05.922Z,98722.59
2019-05-21T04:24:37.019Z,98721.02
2019-05-21T04:27:07.658Z,98730.40
2019-05-21T04:29:38.473Z,98726.69
2019-05-21T04:32:08.933Z,98724.10
2019-05-21T04:34:39.699Z,98731.44
2019-05-21T04:37:11.882Z,98733.88
2019-05-21T04:39:42.405Z,98731.05
2019-05-21T04:42:12.854Z,98735.03
2019-05-21T04:44:43.469Z,98731.92
2019-05-21T04:47:13.935Z,98731.48
2019-05-21T04:49:45.068Z,98736.28
2019-05-21T04:52:15.542Z,98741.02
2019-05-21T04:54:46.377Z,98738.42
2019-05-21T04:57:17.180Z,98741.23
2019-05-21T04:59:47.946Z,98738.20
2019-05-21T05:02:18.795Z,98744.27
2019-05-21T05:04:49.689Z,98749.60
2019-05-21T05:07:28.247Z,98757.38
2019-05-21T05:09:53.000Z,98749.88
2019-05-21T05:12:23.699Z,98758.28
2019-05-21T05:14:54.476Z,98752.67
2019-05-21T05:17:25.368Z,98756.83
2019-05-21T05:19:56.278Z,98763.38
2019-05-21T05:22:27.109Z,98764.91
2019-05-21T05:24:57.813Z,98764.64
2019-05-21T05:27:28.811Z,98769.34
2019-05-21T05:29:59.645Z,98775.73
2019-05-21T05:32:30.489Z,98779.19
2019-05-21T05:35:01.325Z,98777.22
2019-05-21T05:37:43.377Z,98775.86
2019-05-21T05:40:04.568Z,98781.11
2019-05-21T05:42:35.072Z,98783.98
2019-05-21T05:45:06.378Z,98787.44
2019-05-21T05:47:36.972Z,98785.27
2019-05-21T05:50:09.992Z,98793.09
2019-05-21T05:52:40.466Z,98792.39
2019-05-21T05:55:11.393Z,98786.45
2019-05-21T05:57:41.903Z,98781.87
2019-05-21T06:00:14.168Z,98786.38
2019-05-21T06:02:44.692Z,98788.97
2019-05-21T06:05:16.567Z,98787.52
2019-05-21T06:07:59.405Z,98797.09
2019-05-21T06:10:19.429Z,98795.86
2019-05-21T06:12:50.964Z,98793.77
2019-05-21T06:15:21.820Z,98799.84
2019-05-21T06:17:52.615Z,98794.59
2019-05-21T06:20:23.625Z,98799.84
2019-05-21T06:22:54.521Z,98798.50
2019-05-21T06:25:25.633Z,98791.32
2019-05-21T06:27:56.470Z,98788.29
2019-05-21T06:30:27.194Z,98789.91
2019-05-21T06:32:58.033Z,98794.75
2019-05-21T06:35:28.779Z,98801.21
2019-05-21T06:38:16.115Z,98802.70
2019-05-21T06:40:31.809Z,98802.16
2019-05-21T06:43:02.710Z,98808.55
2019-05-21T06:45:33.582Z,98814.10
2019-05-21T06:48:04.555Z,98818.33
2019-05-21T06:50:37.618Z,98811.72
2019-05-21T06:53:07.854Z,98814.99
2019-05-21T06:55:38.752Z,98818.00
2019-05-21T06:58:09.814Z,98823.42
2019-05-21T07:00:40.696Z,98821.50
2019-05-21T07:03:11.964Z,98826.52
2019-05-21T07:05:57.686Z,98829.19
2019-05-21T07:08:15.309Z,98825.91
2019-05-21T07:10:46.180Z,98828.27
2019-05-21T07:13:17.118Z,98834.84
2019-05-21T07:15:47.894Z,98838.73
2019-05-21T07:18:18.648Z,98846.62
2019-05-21T07:20:49.255Z,98854.59
2019-05-21T07:23:20.016Z,98850.82
2019-05-21T07:25:50.924Z,98852.83
2019-05-21T07:28:21.753Z,98854.27
2019-05-21T07:30:52.422Z,98858.86
2019-05-21T07:33:23.509Z,98860.09
2019-05-21T07:35:54.171Z,98860.09
2019-05-21T07:38:25.042Z,98857.78
2019-05-21T07:40:56.260Z,98863.38
2019-05-21T07:43:27.125Z,98861.32
2019-05-21T07:45:58.009Z,98860.84
2019-05-21T07:48:28.865Z,98860.75
2019-05-21T07:50:59.876Z,98870.72
2019-05-21T07:53:30.559Z,98872.22
2019-05-21T07:56:01.137Z,98873.26
2019-05-21T07:58:31.613Z,98874.57
2019-05-21T08:01:02.242Z,98875.19
2019-05-21T08:03:32.786Z,98879.91
2019-05-21T08:06:03.291Z,98886.98
2019-05-21T08:08:33.757Z,98896.78
2019-05-21T08:11:04.707Z,98891.22
2019-05-21T08:13:35.789Z,98887.30
2019-05-21T08:16:06.609Z,98893.54
2019-05-21T08:18:37.296Z,98903.98
2019-05-21T08:21:08.131Z,98907.94
2019-05-21T08:23:39.097Z,98900.89
2019-05-21T08:26:09.806Z,98906.27
2019-05-21T08:28:40.533Z,98901.49
2019-05-21T08:31:11.634Z,98912.50
2019-05-21T08:33:42.408Z,98922.13
2019-05-21T08:36:13.385Z,98921.09
2019-05-21T08:38:44.197Z,98934.09
2019-05-21T08:41:15.457Z,98929.97
2019-05-21T08:43:46.264Z,98922.36
2019-05-21T08:46:17.146Z,98922.38
2019-05-21T08:48:47.940Z,98917.54
2019-05-21T08:51:18.709Z,98921.75
2019-05-21T08:53:49.583Z,98922.79
2019-05-21T08:56:20.055Z,98921.84
2019-05-21T08:58:50.542Z,98923.41
2019-05-21T09:01:21.135Z,98919.51
2019-05-21T09:03:51.640Z,98924.98
2019-05-21T09:06:22.128Z,98930.20
2019-05-21T09:08:52.632Z,98938.66
2019-05-21T09:11:23.104Z,98943.73
2019-05-21T09:13:53.981Z,98945.67
2019-05-21T09:16:24.892Z,98956.56
2019-05-21T09:18:55.728Z,98949.58
2019-05-21T09:21:26.616Z,98956.52
2019-05-21T09:23:57.403Z,98962.92
2019-05-21T09:26:28.372Z,98961.47
2019-05-21T09:28:59.064Z,98964.13
2019-05-21T09:31:29.933Z,98958.76
2019-05-21T09:34:00.847Z,98956.61
2019-05-21T09:36:31.716Z,98962.73
2019-05-21T09:39:02.422Z,98961.20
2019-05-21T09:41:34.933Z,98970.14
2019-05-21T09:44:06.092Z,98961.08
2019-05-21T09:46:37.092Z,98956.58
2019-05-21T09:49:07.805Z,98968.59
2019-05-21T09:51:38.574Z,98967.60
2019-05-21T09:54:09.477Z,98971.54
2019-05-21T09:56:40.280Z,98975.82
2019-05-21T09:59:24.928Z,98975.91
2019-05-21T10:01:58.131Z,98980.02
2019-05-21T10:04:29.014Z,98993.27
2019-05-21T10:07:00.062Z,98995.11
2019-05-21T10:09:30.886Z,98999.89
2019-05-21T10:12:01.628Z,99002.39
2019-05-21T10:14:34.403Z,99005.67
2019-05-21T10:17:05.571Z,99006.23
2019-05-21T10:19:36.426Z,99006.80
2019-05-21T10:22:07.412Z,99004.66
2019-05-21T10:24:38.252Z,99011.42
2019-05-21T10:27:09.169Z,99010.25
2019-05-21T10:29:40.017Z,99020.27
2019-05-21T10:32:10.886Z,99014.50
2019-05-21T10:34:41.599Z,99016.92
2019-05-21T10:37:12.548Z,99013.29
2019-05-21T10:39:43.452Z,99011.75
2019-05-21T10:42:14.222Z,99019.63
2019-05-21T10:44:45.011Z,99027.36
2019-05-21T10:47:16.551Z,99025.36
2019-05-21T10:49:47.456Z,99021.38
2019-05-21T10:52:18.246Z,99024.94
2019-05-21T10:54:48.715Z,99021.11
2019-05-21T10:57:19.299Z,99030.70
2019-05-21T10:59:49.792Z,99027.55
2019-05-21T11:02:29.598Z,99035.16
2019-05-21T11:05:10.061Z,99020.98
2019-05-21T11:07:40.837Z,99024.84
2019-05-21T11:10:12.238Z,99028.77
2019-05-21T11:12:42.984Z,99040.66
2019-05-21T11:15:14.262Z,99048.81
2019-05-21T11:17:53.747Z,99050.47
2019-05-21T11:20:17.543Z,99052.50
2019-05-21T11:22:48.373Z,99054.41
2019-05-21T11:25:19.073Z,99058.02
2019-05-21T11:27:49.994Z,99054.08
2019-05-21T11:30:20.789Z,99056.89
2019-05-21T11:32:51.585Z,99058.22
2019-05-21T11:35:22.685Z,99057.73
2019-05-21T11:37:53.631Z,99063.36
2019-05-21T11:40:27.029Z,99066.08
2019-05-21T11:42:57.910Z,99070.16
2019-05-21T11:45:32.827Z,99069.23
2019-05-21T11:48:02.244Z,99073.47
2019-05-21T11:50:33.116Z,99073.55
2019-05-21T11:53:04.931Z,99063.81
2019-05-21T11:55:35.811Z,99074.33
2019-05-21T11:58:06.640Z,99071.13
2019-05-21T12:00:37.606Z,99060.22
2019-05-21T12:03:08.457Z,99056.01
2019-05-21T12:05:39.374Z,99062.20
2019-05-21T12:08:10.057Z,99070.48
2019-05-21T12:10:40.755Z,99068.18
2019-05-21T12:13:11.745Z,99071.46
2019-05-21T12:15:42.563Z,99071.91
2019-05-21T12:18:13.447Z,99072.44
2019-05-21T12:20:45.243Z,99078.37
2019-05-21T12:23:15.944Z,99084.77
2019-05-21T12:25:46.764Z,99087.98
2019-05-21T12:28:17.519Z,99085.01
2019-05-21T12:30:48.471Z,99085.84
2019-05-21T12:33:19.174Z,99089.09
2019-05-21T12:35:50.632Z,99093.83
2019-05-21T12:38:21.431Z,99096.16
2019-05-21T12:40:52.294Z,99098.72
2019-05-21T12:43:23.157Z,99096.13
2019-05-21T12:45:54.116Z,99103.86
2019-05-21T12:48:24.971Z,99107.89
2019-05-21T12:50:55.974Z,99099.01
2019-05-21T12:53:26.748Z,99105.58
2019-05-21T12:55:57.518Z,99116.63
2019-05-21T12:58:28.476Z,99113.50
2019-05-21T13:00:58.966Z,99114.44
2019-05-21T13:03:29.470Z,99114.14
2019-05-21T13:05:59.945Z,99109.98
2019-05-21T13:08:30.456Z,99112.38
2019-05-21T13:11:00.933Z,99114.13
2019-05-21T13:13:31.536Z,99130.55
2019-05-21T13:16:02.042Z,99123.55
2019-05-21T13:18:32.565Z,99124.55
2019-05-21T13:21:03.064Z,99128.70
2019-05-21T13:23:33.560Z,99132.70
2019-05-21T13:26:08.009Z,99130.95
2019-05-21T13:28:37.289Z,99138.14
2019-05-21T13:31:08.100Z,99133.97
2019-05-21T13:33:38.913Z,99136.32
2019-05-21T13:36:09.683Z,99137.01
2019-05-21T13:38:40.489Z,99139.56
2019-05-21T13:41:11.814Z,99135.52
2019-05-21T13:43:42.930Z,99139.44
2019-05-21T13:46:13.692Z,99140.09
2019-05-21T13:48:46.955Z,99136.58
2019-05-21T13:51:17.279Z,99145.87
2019-05-21T13:53:48.009Z,99143.58
2019-05-21T13:56:18.917Z,99147.91
2019-05-21T13:58:49.893Z,99145.99
2019-05-21T14:01:38.856Z,99140.16
2019-05-21T14:03:54.248Z,99149.71
2019-05-21T14:06:24.996Z,99151.11
2019-05-21T14:08:55.757Z,99152.66
2019-05-21T14:11:26.770Z,99156.17
2019-05-21T14:13:57.633Z,99158.52
2019-05-21T14:16:29.597Z,99161.28
2019-05-21T14:19:00.405Z,99156.11
2019-05-21T14:21:31.202Z,99155.01
2019-05-21T14:24:02.037Z,99154.33
2019-05-21T14:26:32.940Z,99152.96
2019-05-21T14:29:03.607Z,99158.06
2019-05-21T14:31:34.416Z,99154.71
2019-05-21T14:34:05.449Z,99160.94
2019-05-21T14:36:36.318Z,99153.31
2019-05-21T14:39:12.364Z,99162.14
2019-05-21T14:41:43.223Z,99162.14
2019-05-21T14:44:14.020Z,99166.79
2019-05-21T14:46:44.925Z,99172.08
2019-05-21T14:49:15.695Z,99169.77
2019-05-21T14:51:47.345Z,99172.00
2019-05-21T14:54:26.711Z,99178.48
2019-05-21T14:56:50.830Z,99170.14
2019-05-21T14:59:21.501Z,99170.20
2019-05-21T15:01:51.985Z,99176.80
2019-05-21T15:04:22.752Z,99174.08
2019-05-21T15:06:53.536Z,99176.07
2019-05-21T15:09:24.042Z,99172.92
2019-05-21T15:11:54.543Z,99179.85
2019-05-21T15:14:25.080Z,99176.36
2019-05-21T15:16:55.645Z,99179.68
2019-05-21T15:19:27.135Z,99181.59
2019-05-21T15:21:57.891Z,99181.77
2019-05-21T15:24:28.366Z,99189.41
2019-05-21T15:26:58.893Z,99185.95
2019-05-21T15:29:29.384Z,99188.25
2019-05-21T15:31:59.901Z,99187.75
2019-05-21T15:34:30.384Z,99188.05
2019-05-21T15:37:01.041Z,99188.02
2019-05-21T15:39:31.629Z,99191.23
2019-05-21T15:42:04.078Z,99191.30
2019-05-21T15:44:35.151Z,99191.80
2019-05-21T15:47:07.799Z,99190.47
2019-05-21T15:49:38.757Z,99194.52
2019-05-21T15:52:09.641Z,99200.25
2019-05-21T15:54:40.660Z,99197.23
2019-05-21T15:57:13.712Z,99196.63
2019-05-21T15:59:44.855Z,99203.33
2019-05-21T16:02:15.973Z,99200.34
2019-05-21T16:04:46.823Z,99199.25
2019-05-21T16:07:19.783Z,99205.33
2019-05-21T16:09:50.925Z,99206.28
2019-05-21T16:12:22.897Z,99203.06
2019-05-21T16:14:54.173Z,99197.89
2019-05-21T16:17:25.121Z,99209.17
2019-05-21T16:20:02.089Z,99203.50
2019-05-21T16:22:33.689Z,99206.98
2019-05-21T16:25:05.076Z,99211.49
2019-05-21T16:27:35.751Z,99210.66
2019-05-21T16:30:08.053Z,99211.19
2019-05-21T16:32:41.010Z,99213.68
2019-05-21T16:35:12.344Z,99207.87
2019-05-21T16:37:43.254Z,99223.84
2019-05-21T16:40:14.038Z,99226.52
2019-05-21T16:42:44.568Z,99224.63
2019-05-21T16:45:15.427Z,99223.39
2019-05-21T16:47:46.782Z,99223.53
2019-05-21T16:50:17.798Z,99221.69
2019-05-21T16:52:48.489Z,99225.80
2019-05-21T16:55:18.970Z,99231.95
2019-05-21T16:57:49.497Z,99229.27
2019-05-21T17:00:22.088Z,99228.78
2019-05-21T17:02:52.578Z,99229.80
2019-05-21T17:05:24.106Z,99230.14
2019-05-21T17:07:54.573Z,99234.44
2019-05-21T17:10:25.340Z,99236.37
2019-05-21T17:12:55.847Z,99234.44
2019-05-21T17:15:26.453Z,99234.44
2019-05-21T17:17:56.933Z,99235.50
2019-05-21T17:20:27.873Z,99234.67
2019-05-21T17:22:58.617Z,99235.16
2019-05-21T17:25:29.493Z,99235.11
2019-05-21T17:28:00.202Z,99241.34
2019-05-21T17:30:32.290Z,99240.23
2019-05-21T17:33:04.126Z,99241.29
2019-05-21T17:35:35.363Z,99236.87
2019-05-21T17:38:06.491Z,99239.41
2019-05-21T17:40:37.207Z,99243.19
2019-05-21T17:43:07.967Z,99249.75
2019-05-21T17:45:38.729Z,99245.41
2019-05-21T17:48:09.640Z,99250.55
2019-05-21T17:50:40.373Z,99251.67
2019-05-21T17:53:11.466Z,99254.87
2019-05-21T17:55:42.558Z,99257.91
2019-05-21T17:58:13.661Z,99258.17
2019-05-21T18:00:50.681Z,99260.89
2019-05-21T18:03:21.631Z,99259.48
2019-05-21T18:05:52.636Z,99265.53
2019-05-21T18:08:23.772Z,99264.97
2019-05-21T18:10:54.859Z,99270.30
2019-05-21T18:13:25.932Z,99268.69
2019-05-21T18:15:57.706Z,99275.47
2019-05-21T18:18:28.967Z,99271.66
2019-05-21T18:21:00.038Z,99275.78
2019-05-21T18:23:31.215Z,99283.89
2019-05-21T18:26:02.281Z,99287.61
2019-05-21T18:28:33.197Z,99296.27
2019-05-21T18:31:05.332Z,99296.19
2019-05-21T18:33:36.345Z,99294.88
2019-05-21T18:36:07.460Z,99303.28
2019-05-21T18:38:38.778Z,99300.56
2019-05-21T18:41:09.793Z,99307.31
2019-05-21T18:43:40.532Z,99306.73
2019-05-21T18:46:11.451Z,99305.27
2019-05-21T18:48:42.250Z,99308.50
2019-05-21T18:51:13.792Z,99312.79
2019-05-21T18:53:44.628Z,99315.03
2019-05-21T18:56:16.672Z,99314.41
2019-05-21T18:58:47.189Z,99313.30
2019-05-21T19:01:17.762Z,99317.17
2019-05-21T19:03:48.284Z,99315.45
2019-05-21T19:06:18.885Z,99315.66
2019-05-21T19:08:49.509Z,99318.58
2019-05-21T19:11:20.254Z,99325.16
2019-05-21T19:13:50.817Z,99322.63
2019-05-21T19:16:21.341Z,99328.08
2019-05-21T19:18:51.844Z,99329.53
2019-05-21T19:21:22.366Z,99335.23
2019-05-21T19:23:53.200Z,99334.02
2019-05-21T19:26:24.972Z,99344.95
2019-05-21T19:28:55.962Z,99339.05
2019-05-21T19:31:27.365Z,99348.30
2019-05-21T19:33:58.594Z,99346.52
2019-05-21T19:36:29.740Z,99350.38
2019-05-21T19:39:00.562Z,99357.56
2019-05-21T19:41:33.046Z,99358.59
2019-05-21T19:44:04.262Z,99366.73
2019-05-21T19:46:34.997Z,99369.84
2019-05-21T19:49:05.971Z,99361.31
2019-05-21T19:51:36.797Z,99370.86
2019-05-21T19:54:07.873Z,99372.22
2019-05-21T19:56:39.494Z,99373.34
2019-05-21T19:59:10.361Z,99377.14
2019-05-21T20:01:41.651Z,99376.69
2019-05-21T20:04:14.338Z,99378.42
2019-05-21T20:06:45.400Z,99385.73
2019-05-21T20:09:17.575Z,99382.29
2019-05-21T20:11:48.413Z,99390.69
2019-05-21T20:14:19.705Z,99398.37
2019-05-21T20:16:51.009Z,99400.84
2019-05-21T20:19:23.120Z,99404.97
2019-05-21T20:21:54.388Z,99409.56
2019-05-21T20:24:25.548Z,99406.32
2019-05-21T20:26:56.495Z,99410.45
2019-05-21T20:29:27.542Z,99409.44
2019-05-21T20:31:58.612Z,99408.83
2019-05-21T20:34:29.801Z,99401.49
2019-05-21T20:37:00.657Z,99405.87
2019-05-21T20:39:33.213Z,99411.05
2019-05-21T20:42:05.658Z,99411.12
2019-05-21T20:44:36.334Z,99420.20
2019-05-21T20:47:09.280Z,99417.70
2019-05-21T20:49:39.751Z,99419.59
2019-05-21T20:52:18.586Z,99426.10
2019-05-21T20:54:46.440Z,99423.33
2019-05-21T20:57:17.718Z,99426.58
2019-05-21T20:59:48.334Z,99426.05
2019-05-21T21:02:18.823Z,99431.73
2019-05-21T21:04:49.910Z,99422.02
2019-05-21T21:07:20.814Z,99421.61
2019-05-21T21:09:51.965Z,99423.30
2019-05-21T21:12:23.378Z,99422.88
2019-05-21T21:14:54.747Z,99426.67
2019-05-21T21:17:26.383Z,99425.31
2019-05-21T21:19:57.247Z,99429.52
2019-05-21T21:22:28.109Z,99431.15
2019-05-21T21:24:59.033Z,99434.70
2019-05-21T21:27:31.206Z,99434.89
2019-05-21T21:30:02.157Z,99438.69
2019-05-21T21:32:34.472Z,99439.16
2019-05-21T21:35:05.825Z,99436.44
2019-05-21T21:37:36.622Z,99434.84
2019-05-21T21:40:12.089Z,99438.11
2019-05-21T21:42:43.901Z,99443.03
2019-05-21T21:45:14.967Z,99447.38
2019-05-21T21:47:45.822Z,99452.45
2019-05-21T21:50:18.760Z,99443.03
2019-05-21T21:52:50.096Z,99441.17
2019-05-21T21:55:20.858Z,99443.42
2019-05-21T21:57:51.585Z,99444.22
2019-05-21T22:01:20.055Z,99441.16
2019-05-21T22:03:51.592Z,99443.09
2019-05-21T22:06:23.807Z,99445.13
2019-05-21T22:08:54.742Z,99443.50
2019-05-21T22:11:26.353Z,99453.12
2019-05-21T22:13:57.209Z,99443.17
2019-05-21T22:16:28.410Z,99445.09
2019-05-21T22:18:59.253Z,99446.25
2019-05-21T22:21:30.002Z,99447.94
2019-05-21T22:24:00.521Z,99445.42
2019-05-21T22:26:31.297Z,99443.20
2019-05-21T22:29:01.773Z,99440.59
2019-05-21T22:31:32.262Z,99445.69
2019-05-21T22:34:02.813Z,99441.02
2019-05-21T22:36:33.492Z,99439.16
2019-05-21T22:39:06.844Z,99440.69
2019-05-21T22:41:37.347Z,99440.12
2019-05-21T22:44:08.996Z,99446.91
2019-05-21T22:46:40.045Z,99442.06
2019-05-21T22:49:11.053Z,99446.45
2019-05-21T22:51:41.808Z,99445.39
2019-05-21T22:54:12.633Z,99447.52
2019-05-21T22:56:43.698Z,99450.20
2019-05-21T22:59:14.705Z,99446.61
2019-05-21T23:01:45.612Z,99448.11
2019-05-21T23:04:16.563Z,99451.34
2019-05-21T23:06:49.039Z,99455.39
2019-05-21T23:09:19.995Z,99455.61
2019-05-21T23:11:50.895Z,99454.39
2019-05-21T23:14:22.064Z,99460.11
2019-05-21T23:16:54.254Z,99461.13
2019-05-21T23:19:28.088Z,99459.75
2019-05-21T23:22:03.420Z,99456.27
2019-05-21T23:24:34.675Z,99451.42
2019-05-21T23:27:07.137Z,99455.09
2019-05-21T23:29:39.252Z,99443.72
2019-05-21T23:32:10.255Z,99445.20
2019-05-21T23:34:40.907Z,99439.78
2019-05-21T23:37:18.019Z,99433.89
2019-05-21T23:39:50.192Z,99438.73
2019-05-21T23:42:28.996Z,99430.81
2019-05-21T23:44:53.274Z,99430.48
2019-05-21T23:47:24.146Z,99428.23
2019-05-21T23:49:54.916Z,99431.62
2019-05-21T23:52:26.475Z,99435.02
2019-05-21T23:54:56.944Z,99426.27
2019-05-21T23:57:32.724Z,99424.88
